Flight Track Log - Related Links

Times and Time Zones

All times are in EDT time to prevent confusion due to time zone crossing. See the AAL963 flight status page for this flight to view local times or setup timezone preferences in your user account.

Time Position Orientation Groundspeed Altitude Reporting Facility
EDT Latitude Longitude Course Direction KTS MPH feet Rate Location/Type
Tue 09:20:24 PM 32.8790 -97.0510 180° South 189 217 1,300  Level FlightAware ADS-B
Tue 09:20:45 PM 32.8600 -97.0540 188° South 181 208 2,300 2,049 Climbing FlightAware ADS-B
Tue 09:21:05 PM 32.8420 -97.0580 191° South 192 221 2,700 968 Climbing FlightAware ADS-B
Tue 09:21:16 PM 32.8310 -97.0610 193° South 203 234 2,800 581 Climbing FlightAware ADS-B
Tue 09:21:36 PM 32.8120 -97.0650 190° South 228 262 3,000 1,067 Climbing FlightAware ADS-B
Tue 09:22:01 PM 32.7850 -97.0710 191° South 244 281 3,600 1,902 Climbing FlightAware ADS-B
Tue 09:22:17 PM 32.7660 -97.0740 188° South 243 280 4,300 1,950 Climbing FlightAware ADS-B
Tue 09:22:41 PM 32.7380 -97.0670 168° South 256 295 4,900 1,773 Climbing FlightAware ADS-B
Tue 09:23:01 PM 32.7150 -97.0590 164° South 258 297 5,600 2,045 Climbing FlightAware ADS-B
Tue 09:23:25 PM 32.6870 -97.0470 160° South 267 307 6,400 1,941 Climbing FlightAware ADS-B
Tue 09:23:35 PM 32.6760 -97.0410 155° Southeast 271 312 6,700 1,875 Climbing FlightAware ADS-B
Tue 09:23:57 PM 32.6500 -97.0270 156° South 277 319 7,400 1,714 Climbing FlightAware ADS-B
Tue 09:24:17 PM 32.6260 -97.0120 152° Southeast 287 330 7,900 1,909 Climbing FlightAware ADS-B
Tue 09:24:41 PM 32.5970 -96.9960 155° Southeast 287 330 8,800 2,000 Climbing FlightAware ADS-B
Tue 09:24:53 PM 32.5840 -96.9880 153° Southeast 289 333 9,100 1,622 Climbing FlightAware ADS-B
Tue 09:25:18 PM 32.5530 -96.9710 155° Southeast 297 342 9,800 1,714 Climbing FlightAware ADS-B
Tue 09:25:49 PM 32.5140 -96.9480 154° Southeast 307 353 10,700 1,433 Climbing FlightAware ADS-B
Tue 09:26:25 PM 32.4660 -96.9190 153° Southeast 335 386 11,400 1,083 Climbing FlightAware ADS-B
Tue 09:27:01 PM 32.4140 -96.8900 155° Southeast 365 420 12,000 1,167 Climbing FlightAware ADS-B
Tue 09:27:37 PM 32.3560 -96.8580 155° Southeast 390 449 12,800 1,478 Climbing FlightAware ADS-B
Tue 09:28:10 PM 32.3030 -96.8280 154° Southeast 403 464 13,700 1,853 Climbing FlightAware ADS-B
Tue 09:28:45 PM 32.2410 -96.8000 159° South 408 470 14,900 1,859 Climbing FlightAware ADS-B
Tue 09:29:21 PM 32.1740 -96.7740 162° South 420 483 15,900 1,909 Climbing FlightAware ADS-B
Tue 09:29:51 PM 32.1164 -96.7516 162° South 424 488 17,000 1,909 Climbing FlightAware ADS-B
Tue 09:30:27 PM 32.0485 -96.7256 162° South 427 491 18,000 1,690 Climbing FlightAware ADS-B
Tue 09:31:02 PM 31.9821 -96.7003 162° South 440 506 19,000 1,703 Climbing FlightAware ADS-B
Tue 09:31:41 PM 31.9070 -96.6720 162° South 446 513 20,100 1,750 Climbing FlightAware ADS-B
Tue 09:31:50 PM 31.8878 -96.6646 162° South 444 511 20,400 1,800 Climbing FlightAware ADS-B
Tue 09:32:21 PM 31.8255 -96.6397 161° South 451 519 21,300 1,770 Climbing FlightAware ADS-B
Tue 09:32:51 PM 31.7660 -96.6150 161° South 453 521 22,200 1,604 Climbing FlightAware ADS-B
Tue 09:34:02 PM 31.6246 -96.5569 161° South 466 536 24,000 1,426 Climbing FlightAware ADS-B
Tue 09:34:32 PM 31.5608 -96.5310 161° South 472 543 24,600 1,257 Climbing FlightAware ADS-B
Tue 09:35:47 PM 31.4030 -96.4705 163° South 483 556 26,200 1,302 Climbing FlightAware ADS-B
Tue 09:36:18 PM 31.3376 -96.4463 162° South 487 560 26,900 1,377 Climbing FlightAware ADS-B
Tue 09:36:48 PM 31.2723 -96.4221 162° South 489 563 27,600 1,368 Climbing FlightAware ADS-B
Tue 09:37:15 PM 31.2138 -96.3998 162° South 493 567 28,200 1,333 Climbing FlightAware ADS-B
Tue 09:37:33 PM 31.1774 -96.3776 149° Southeast 494 568 28,600 1,111 Climbing FlightAware ADS-B
Tue 09:37:42 PM 31.1608 -96.3631 143° Southeast 496 571 28,700 938 Climbing FlightAware ADS-B
Tue 09:38:05 PM 31.1254 -96.3185 128° Southeast 499 574 29,100 784 Climbing FlightAware ADS-B
Tue 09:40:38 PM 30.9187 -95.9814 126° Southeast 504 580 31,000 623 Climbing FlightAware ADS-B
Tue 09:41:08 PM 30.8775 -95.9148 126° Southeast 503 579 31,000  Level FlightAware ADS-B
Tue 09:41:39 PM 30.8364 -95.8487 126° Southeast 502 578 31,000  Level FlightAware ADS-B
Tue 09:42:09 PM 30.7956 -95.7832 126° Southeast 501 577 31,000  Level FlightAware ADS-B
Tue 09:42:39 PM 30.7538 -95.7161 126° Southeast 501 577 31,000  Level FlightAware ADS-B
Tue 09:43:10 PM 30.7115 -95.6483 126° Southeast 501 577 31,000  Level FlightAware ADS-B
Tue 09:43:41 PM 30.6705 -95.5826 126° Southeast 501 577 31,000  Level FlightAware ADS-B
Tue 09:46:19 PM 30.4544 -95.2381 126° Southeast 502 578 31,000  Level FlightAware ADS-B
Tue 09:46:49 PM 30.4128 -95.1721 126° Southeast 502 578 31,000  Level FlightAware ADS-B
Tue 09:47:21 PM 30.3700 -95.1044 126° Southeast 502 578 31,000  Level FlightAware ADS-B
Tue 09:47:51 PM 30.3290 -95.0396 126° Southeast 502 578 31,000  Level FlightAware ADS-B
Tue 09:51:23 PM 30.0362 -94.5799 126° Southeast 502 578 31,000  Level FlightAware ADS-B
Tue 09:51:53 PM 29.9947 -94.5152 127° Southeast 502 578 31,000  Level FlightAware ADS-B
Tue 09:52:24 PM 29.9522 -94.4490 127° Southeast 501 577 31,000  Level FlightAware ADS-B
Tue 09:54:56 PM 29.7423 -94.1237 127° Southeast 503 579 31,000  Level FlightAware ADS-B
Tue 09:55:40 PM 29.6757 -94.0329 134° Southeast 502 578 31,000  Level FlightAware ADS-B
Tue 09:55:54 PM 29.6518 -94.0086 139° Southeast 502 578 31,000  Level FlightAware ADS-B
Tue 09:56:03 PM 29.6360 -93.9944 142° Southeast 504 580 31,000  Level FlightAware ADS-B
Tue 09:56:33 PM 29.5791 -93.9455 143° Southeast 505 581 31,000  Level FlightAware ADS-B
Tue 09:57:04 PM 29.5217 -93.8965 143° Southeast 505 581 31,000  Level FlightAware ADS-B
Tue 09:57:34 PM 29.4637 -93.8473 144° Southeast 506 582 31,000  Level FlightAware ADS-B
Tue 09:58:05 PM 29.4065 -93.7986 143° Southeast 507 583 31,000  Level FlightAware ADS-B
Tue 09:59:03 PM 29.2965 -93.7049 143° Southeast 507 583 31,000  Level FlightAware ADS-B
Tue 09:59:39 PM 29.2300 -93.6484 143° Southeast 507 583 31,000  Level FlightAware ADS-B
Tue 10:00:09 PM 29.1733 -93.6004 144° Southeast 507 583 31,000  Level FlightAware ADS-B
Tue 10:01:35 PM 29.0114 -93.4636 144° Southeast 506 582 31,000  Level FlightAware ADS-B
Tue 10:02:06 PM 28.9515 -93.4132 144° Southeast 507 583 31,000  Level FlightAware ADS-B
Tue 10:02:49 PM 28.8825 -93.3542 144° Southeast 506 582 31,000  Level Houston Center
Tue 10:03:50 PM 28.7692 -93.2586 144° Southeast 506 582 31,000  Level Houston Center
Tue 10:04:51 PM 28.6553 -93.1639 144° Southeast 508 585 31,000  Level Houston Center
Tue 10:05:52 PM 28.5414 -93.0683 144° Southeast 509 586 31,000  Level Houston Center
Tue 10:06:53 PM 28.4275 -92.9725 143° Southeast 510 587 31,000  Level Houston Center
Tue 10:07:54 PM 28.3133 -92.8775 144° Southeast 509 586 31,000 -49 Level Houston Center
Tue 10:08:55 PM 28.1986 -92.7836 144° Southeast 509 586 30,900  Descending Houston Center
Tue 10:09:56 PM 28.0844 -92.6892 144° Southeast 508 585 31,000  Climbing Houston Center
Tue 10:10:57 PM 27.9486 -92.5756 144° Southeast 508 585 30,900  Descending Houston Center
Tue 10:11:58 PM 27.8339 -92.4842 145° Southeast 505 581 31,000  Climbing Houston Center
Tue 10:12:59 PM 27.7208 -92.3908 144° Southeast 505 581 30,900  Descending Houston Center
Tue 10:14:00 PM 27.6069 -92.3003 145° Southeast 501 577 31,000 49 Climbing Houston Center
Tue 10:15:01 PM 27.4933 -92.2072 144° Southeast 504 580 31,000  Level Houston Center
Tue 10:16:02 PM 27.3808 -92.1153 144° Southeast 503 579 31,000  Level Houston Center
Tue 10:17:04 PM 27.2667 -92.0231 144° Southeast 503 579 31,000  Level Houston Center
Tue 10:18:05 PM 27.1536 -91.9319 144° Southeast 502 578 31,000 -49 Level Houston Center
Tue 10:19:06 PM 27.0397 -91.8436 145° Southeast 500 575 30,900  Descending Houston Center
Tue 10:20:07 PM 26.9258 -91.7542 145° Southeast 500 575 31,000 Climbing Houston Center
Tue 10:22:00 PM 26.7231 -91.5877 144° Southeast  Level FlightAware Approximate
Tue 10:29:00 PM 25.9640 -90.9800 145° Southeast  Level FlightAware Approximate
Tue 10:30:00 PM 25.8548 -90.8947 145° Southeast  Level FlightAware Approximate
Tue 10:31:00 PM 25.7456 -90.8095 145° Southeast  Level FlightAware Approximate
Tue 10:32:00 PM 25.6363 -90.7245 145° Southeast  Level FlightAware Approximate
Tue 10:33:00 PM 25.5270 -90.6397 145° Southeast  Level FlightAware Approximate
Tue 10:34:00 PM 25.4176 -90.5550 145° Southeast  Level FlightAware Approximate
Tue 10:35:00 PM 25.3081 -90.4704 145° Southeast  Level FlightAware Approximate
Tue 10:36:00 PM 25.1987 -90.3860 145° Southeast  Level FlightAware Approximate
Tue 10:37:00 PM 25.0892 -90.3018 145° Southeast  Level FlightAware Approximate
Tue 10:38:00 PM 24.9796 -90.2177 145° Southeast  Level FlightAware Approximate
Tue 10:39:00 PM 24.8702 -90.1334 145° Southeast  Level FlightAware Approximate
Tue 10:40:00 PM 24.7607 -90.0494 145° Southeast  Level FlightAware Approximate
Tue 10:41:00 PM 24.6511 -89.9655 145° Southeast  Level FlightAware Approximate
Tue 10:42:00 PM 24.5416 -89.8817 145° Southeast  Level FlightAware Approximate
Tue 10:43:00 PM 24.4332 -89.7965 146° Southeast  Level FlightAware Approximate
Tue 10:44:00 PM 24.3221 -89.7152 146° Southeast  Level FlightAware Approximate
Tue 10:45:00 PM 24.2111 -89.6341 146° Southeast  Level FlightAware Approximate
Tue 10:46:00 PM 24.1000 -89.5530 146° Southeast  Level FlightAware Approximate
Tue 10:47:00 PM 23.9922 -89.4671 142° Southeast  Level FlightAware Approximate
Tue 10:48:00 PM 23.8906 -89.3726 137° Southeast  Level FlightAware Approximate
Tue 10:49:00 PM 23.7934 -89.2727 137° Southeast  Level FlightAware Approximate
Tue 10:50:00 PM 23.6961 -89.1729 137° Southeast  Level FlightAware Approximate
Tue 10:51:00 PM 23.5987 -89.0732 137° Southeast  Level FlightAware Approximate
Tue 10:52:00 PM 23.5013 -88.9737 137° Southeast  Level FlightAware Approximate
Tue 10:52:16 PM 23.3180 -88.8200 137° Southeast 493 567 31,000  Level FlightAware ADS-B
Tue 10:52:56 PM 23.2600 -88.7650 139° Southeast 493 567 31,000  Level FlightAware ADS-B
Tue 10:53:00 PM 23.4038 -88.8743 137° Southeast  Level FlightAware Approximate
Tue 10:53:40 PM 23.1780 -88.6910 140° Southeast 494 568 31,000  Level FlightAware ADS-B
Tue 10:54:16 PM 23.1260 -88.6410 139° Southeast 494 568 31,000  Level FlightAware ADS-B
Tue 10:54:52 PM 23.0730 -88.5910 139° Southeast 494 568 31,000  Level FlightAware ADS-B
Tue 10:55:28 PM 23.0200 -88.5410 139° Southeast 494 568 31,000  Level FlightAware ADS-B
Tue 10:55:56 PM 22.9500 -88.4840 143° Southeast 246 283 31,000  Level FlightAware ADS-B
Tue 10:56:34 PM 22.8640 -88.4060 140° Southeast 492 566 31,000  Level FlightAware ADS-B
Tue 10:57:07 PM 22.8100 -88.3570 140° Southeast 491 565 31,000  Level FlightAware ADS-B
Tue 10:57:41 PM 22.7530 -88.3050 140° Southeast 490 564 31,000  Level FlightAware ADS-B
Tue 10:58:26 PM 22.6840 -88.2420 140° Southeast 491 565 31,000  Level FlightAware ADS-B
Tue 10:59:02 PM 22.6180 -88.1820 140° Southeast 491 565 31,000  Level FlightAware ADS-B
Tue 10:59:36 PM 22.5540 -88.1250 141° Southeast 491 565 31,000  Level FlightAware ADS-B
Tue 10:59:59 PM 22.5120 -88.0870 140° Southeast 493 567 31,000  Level FlightAware ADS-B
Tue 11:00:43 PM 22.4340 -88.0170 140° Southeast 492 566 31,000  Level FlightAware ADS-B
Tue 11:01:25 PM 22.3700 -87.9590 140° Southeast 493 567 31,000  Level FlightAware ADS-B
Tue 11:02:03 PM 22.3060 -87.9020 141° Southeast 490 564 31,000  Level FlightAware ADS-B
Tue 11:03:07 PM 22.1860 -87.7940 140° Southeast 490 564 31,000  Level FlightAware ADS-B
Tue 11:03:45 PM 22.1210 -87.7360 140° Southeast 489 563 31,000  Level FlightAware ADS-B
Tue 11:04:23 PM 22.0490 -87.6720 141° Southeast 489 563 31,000  Level FlightAware ADS-B
Tue 11:04:56 PM 21.9920 -87.6200 140° Southeast 489 563 31,000  Level FlightAware ADS-B
Tue 11:05:31 PM 21.9290 -87.5640 140° Southeast 490 564 31,000  Level FlightAware ADS-B
Tue 11:06:05 PM 21.8710 -87.5120 140° Southeast 490 564 31,000  Level FlightAware ADS-B
Tue 11:06:42 PM 21.8170 -87.4640 140° Southeast 490 564 31,000  Level FlightAware ADS-B
Tue 11:07:18 PM 21.7520 -87.4060 140° Southeast 489 563 31,000  Level FlightAware ADS-B
Tue 11:07:51 PM 21.6930 -87.3540 141° Southeast 489 563 31,000  Level FlightAware ADS-B
Tue 11:08:24 PM 21.6310 -87.2990 140° Southeast 488 562 31,000  Level FlightAware ADS-B
Tue 11:09:01 PM 21.5650 -87.2410 141° Southeast 488 562 31,000  Level FlightAware ADS-B
Tue 11:09:37 PM 21.5010 -87.1840 140° Southeast 488 562 31,000  Level FlightAware ADS-B
Tue 11:10:12 PM 21.4410 -87.1310 141° Southeast 488 562 31,000  Level FlightAware ADS-B
Tue 11:10:46 PM 21.3800 -87.0770 140° Southeast 489 563 31,000  Level FlightAware ADS-B
Tue 11:11:24 PM 21.3160 -87.0200 140° Southeast 488 562 31,000  Level FlightAware ADS-B
Tue 11:11:58 PM 21.2510 -86.9630 141° Southeast 487 560 31,000  Level FlightAware ADS-B
Tue 11:12:32 PM 21.1910 -86.9100 141° Southeast 487 560 31,000  Level FlightAware ADS-B
Tue 11:13:08 PM 21.1280 -86.8550 141° Southeast 487 560 31,000  Level FlightAware ADS-B
Tue 11:13:44 PM 21.0660 -86.8000 140° Southeast 488 562 31,000  Level FlightAware ADS-B
Tue 11:14:16 PM 21.0100 -86.7510 141° Southeast 488 562 31,000  Level FlightAware ADS-B
Tue 11:14:54 PM 20.9430 -86.6920 141° Southeast 490 564 31,000 343 Level FlightAware ADS-B
Tue 11:15:26 PM 20.8860 -86.6420 141° Southeast 493 567 31,400 1,091 Climbing FlightAware ADS-B
Tue 11:16:00 PM 20.8270 -86.5910 141° Southeast 493 567 32,200 1,333 Climbing FlightAware ADS-B
Tue 11:16:38 PM 20.7590 -86.5310 140° Southeast 492 566 33,000 649 Climbing FlightAware ADS-B
Tue 11:17:14 PM 20.6970 -86.4770 141° Southeast 490 564 33,000  Level FlightAware ADS-B
Tue 11:17:46 PM 20.6400 -86.4270 141° Southeast 491 565 33,000  Level FlightAware ADS-B
Tue 11:18:20 PM 20.5790 -86.3750 141° Southeast 491 565 33,000  Level FlightAware ADS-B
Tue 11:18:58 PM 20.5140 -86.3180 141° Southeast 492 566 33,000  Level FlightAware ADS-B
Tue 11:19:40 PM 20.4500 -86.2600 140° Southeast 492 566 33,000  Level FlightAware ADS-B
Tue 11:20:12 PM 20.4020 -86.2180 141° Southeast 492 566 33,000  Level FlightAware ADS-B
Tue 11:20:48 PM 20.3490 -86.1700 140° Southeast 492 566 33,000  Level FlightAware ADS-B
Tue 11:21:24 PM 20.2960 -86.1220 140° Southeast 492 566 33,000  Level FlightAware ADS-B
Tue 11:22:00 PM 20.2420 -86.0750 141° Southeast 492 566 33,000  Level FlightAware ADS-B
Tue 11:22:24 PM 20.1490 -86.0010 143° Southeast 486 559 33,000  Level FlightAware ADS-B
Tue 11:23:22 PM 20.0480 -85.9140 141° Southeast 488 562 33,000  Level FlightAware ADS-B
Tue 11:23:56 PM 19.9890 -85.8620 140° Southeast 488 562 33,000  Level FlightAware ADS-B
Tue 11:24:32 PM 19.9280 -85.8040 138° Southeast 489 563 33,000  Level FlightAware ADS-B
Tue 11:25:08 PM 19.8680 -85.7460 138° Southeast 489 563 33,000  Level FlightAware ADS-B
Tue 11:25:40 PM 19.8140 -85.6940 138° Southeast 490 564 33,000  Level FlightAware ADS-B
Tue 11:26:18 PM 19.7490 -85.6330 139° Southeast 491 565 33,000  Level FlightAware ADS-B
Tue 11:26:52 PM 19.6920 -85.5800 139° Southeast 492 566 33,000  Level FlightAware ADS-B
Tue 11:27:32 PM 19.6340 -85.5250 138° Southeast 492 566 33,000  Level FlightAware ADS-B
Tue 11:28:08 PM 19.5830 -85.4760 138° Southeast 492 566 33,000  Level FlightAware ADS-B
Tue 11:28:40 PM 19.5080 -85.4080 139° Southeast 495 570 33,000  Level FlightAware ADS-B
Tue 11:29:17 PM 19.4500 -85.3530 138° Southeast 495 570 33,000  Level FlightAware ADS-B
Tue 11:29:52 PM 19.3820 -85.2900 139° Southeast 495 570 33,000  Level FlightAware ADS-B
Tue 11:30:41 PM 19.3100 -85.2220 138° Southeast 494 568 33,000  Level FlightAware ADS-B
Tue 11:31:17 PM 19.2580 -85.1720 138° Southeast 494 568 33,000  Level FlightAware ADS-B
Tue 11:31:53 PM 19.2060 -85.1230 138° Southeast 494 568 33,000  Level FlightAware ADS-B
Tue 11:32:29 PM 19.1540 -85.0730 138° Southeast 494 568 33,000  Level FlightAware ADS-B
Tue 11:33:05 PM 19.1020 -85.0240 138° Southeast 494 568 33,000  Level FlightAware ADS-B
Tue 11:33:41 PM 19.0500 -84.9740 138° Southeast 494 568 33,000  Level FlightAware ADS-B
Tue 11:34:17 PM 18.9980 -84.9250 138° Southeast 494 568 33,000  Level FlightAware ADS-B
Tue 11:34:53 PM 18.9460 -84.8750 138° Southeast 494 568 33,000  Level FlightAware ADS-B
Tue 11:35:29 PM 18.8940 -84.8260 138° Southeast 494 568 33,000  Level FlightAware ADS-B
Tue 11:36:05 PM 18.8420 -84.7760 138° Southeast 494 568 33,000  Level FlightAware ADS-B
Tue 11:36:41 PM 18.7900 -84.7270 138° Southeast 494 568 33,000  Level FlightAware ADS-B
Tue 11:37:17 PM 18.7380 -84.6780 138° Southeast 494 568 33,000  Level FlightAware ADS-B
Tue 11:37:53 PM 18.6860 -84.6280 138° Southeast 494 568 33,000  Level FlightAware ADS-B
Tue 11:38:29 PM 18.6340 -84.5790 138° Southeast 494 568 33,000  Level FlightAware ADS-B
Tue 11:39:05 PM 18.5820 -84.5290 138° Southeast 494 568 33,000  Level FlightAware ADS-B
Tue 11:39:41 PM 18.5300 -84.4800 138° Southeast 494 568 33,000  Level FlightAware ADS-B
Tue 11:42:00 PM 18.3032 -84.2577 137° Southeast  Level Estimated
Tue 11:43:00 PM 18.2052 -84.1619 137° Southeast  Level Estimated
Tue 11:44:00 PM 18.1072 -84.0662 137° Southeast  Level Estimated
Tue 11:45:00 PM 18.0091 -83.9706 137° Southeast  Level Estimated
Tue 11:46:00 PM 17.9110 -83.8752 137° Southeast  Level Estimated
Tue 11:47:00 PM 17.8128 -83.7798 137° Southeast  Level Estimated
Tue 11:48:00 PM 17.7146 -83.6846 137° Southeast  Level Estimated
Tue 11:49:00 PM 17.6164 -83.5894 137° Southeast  Level Estimated
Tue 11:50:00 PM 17.5181 -83.4944 137° Southeast  Level Estimated
Tue 11:51:00 PM 17.4197 -83.3995 137° Southeast  Level Estimated
Tue 11:52:00 PM 17.3213 -83.3046 137° Southeast  Level Estimated
Tue 11:53:00 PM 17.2229 -83.2099 137° Southeast  Level Estimated
Tue 11:54:00 PM 17.1244 -83.1152 137° Southeast  Level Estimated
Tue 11:55:00 PM 17.0259 -83.0207 137° Southeast  Level Estimated
Tue 11:56:00 PM 16.9273 -82.9262 137° Southeast  Level Estimated
Tue 11:57:00 PM 16.8287 -82.8319 138° Southeast  Level Estimated
Tue 11:58:00 PM 16.7300 -82.7377 138° Southeast  Level Estimated
Tue 11:59:00 PM 16.6313 -82.6435 138° Southeast  Level Estimated
Wed 12:00:00 AM 16.5326 -82.5495 138° Southeast  Level Estimated
Wed 12:01:00 AM 16.4338 -82.4555 138° Southeast  Level Estimated
Wed 12:02:00 AM 16.3350 -82.3617 138° Southeast  Level Estimated
Wed 12:03:00 AM 16.2361 -82.2679 138° Southeast  Level Estimated
Wed 12:04:00 AM 16.1372 -82.1743 138° Southeast  Level Estimated
Wed 12:05:00 AM 16.0382 -82.0807 138° Southeast  Level Estimated
Wed 12:06:00 AM 15.9392 -81.9872 138° Southeast  Level Estimated
Wed 12:07:00 AM 15.8402 -81.8938 138° Southeast  Level Estimated
Wed 12:08:00 AM 15.7411 -81.8005 138° Southeast  Level Estimated
Wed 12:09:00 AM 15.6420 -81.7073 138° Southeast  Level Estimated
Wed 12:10:00 AM 15.5429 -81.6142 138° Southeast  Level Estimated
Wed 12:11:00 AM 15.4437 -81.5212 138° Southeast  Level Estimated
Wed 12:12:00 AM 15.3445 -81.4283 138° Southeast  Level Estimated
Wed 12:13:00 AM 15.2452 -81.3354 138° Southeast  Level Estimated
Wed 12:14:00 AM 15.1459 -81.2427 138° Southeast  Level Estimated
Wed 12:15:00 AM 15.0466 -81.1500 138° Southeast  Level Estimated
Wed 12:16:00 AM 14.9472 -81.0574 138° Southeast  Level Estimated
Wed 12:17:00 AM 14.8479 -80.9651 138° Southeast  Level Estimated
Wed 12:18:00 AM 14.7487 -80.8728 138° Southeast  Level Estimated
Wed 12:19:00 AM 14.6494 -80.7807 138° Southeast  Level Estimated
Wed 12:20:00 AM 14.5500 -80.6886 138° Southeast  Level Estimated
Wed 12:21:00 AM 14.4506 -80.5966 138° Southeast  Level Estimated
Wed 12:22:00 AM 14.3512 -80.5047 138° Southeast  Level Estimated
Wed 12:23:00 AM 14.2517 -80.4128 138° Southeast  Level Estimated
Wed 12:24:00 AM 14.1523 -80.3211 138° Southeast  Level Estimated
Wed 12:25:00 AM 14.0527 -80.2294 138° Southeast  Level Estimated
Wed 12:26:00 AM 13.9532 -80.1378 138° Southeast  Level Estimated
Wed 12:27:00 AM 13.8536 -80.0463 138° Southeast  Level Estimated
Wed 12:28:00 AM 13.7539 -79.9549 138° Southeast  Level Estimated
Wed 12:29:00 AM 13.6543 -79.8635 138° Southeast  Level Estimated
Wed 12:30:00 AM 13.5546 -79.7722 138° Southeast  Level Estimated
Wed 12:31:00 AM 13.4549 -79.6811 138° Southeast  Level Estimated
Wed 12:32:00 AM 13.3551 -79.5899 138° Southeast  Level Estimated
Wed 12:33:00 AM 13.2553 -79.4989 138° Southeast  Level Estimated
Wed 12:34:00 AM 13.1555 -79.4079 138° Southeast  Level Estimated
Wed 12:35:00 AM 13.0556 -79.3170 138° Southeast  Level Estimated
Wed 12:36:00 AM 12.9557 -79.2262 138° Southeast  Level Estimated
Wed 12:37:00 AM 12.8558 -79.1354 138° Southeast  Level Estimated
Wed 12:38:00 AM 12.7558 -79.0447 138° Southeast  Level Estimated
Wed 12:39:00 AM 12.6559 -78.9541 139° Southeast  Level Estimated
Wed 12:40:00 AM 12.5559 -78.8636 139° Southeast  Level Estimated
Wed 12:41:00 AM 12.4558 -78.7731 139° Southeast  Level Estimated
Wed 12:42:00 AM 12.3558 -78.6827 139° Southeast  Level Estimated
Wed 12:43:00 AM 12.2556 -78.5924 139° Southeast  Level Estimated
Wed 12:44:00 AM 12.1555 -78.5021 139° Southeast  Level Estimated
Wed 12:45:00 AM 12.0554 -78.4119 139° Southeast  Level Estimated
Wed 12:46:00 AM 11.9552 -78.3218 139° Southeast  Level Estimated
Wed 12:47:00 AM 11.8549 -78.2317 139° Southeast  Level Estimated
Wed 12:48:00 AM 11.7547 -78.1417 139° Southeast  Level Estimated
Wed 12:49:00 AM 11.6544 -78.0518 139° Southeast  Level Estimated
Wed 12:50:00 AM 11.5541 -77.9619 139° Southeast  Level Estimated
Wed 12:51:00 AM 11.4538 -77.8721 139° Southeast  Level Estimated
Wed 12:52:00 AM 11.3534 -77.7824 139° Southeast  Level Estimated
Wed 12:52:57 AM 10.9990 -77.4480 139° Southeast 504 580 33,000  Level FlightAware ADS-B
Wed 12:53:00 AM 11.2530 -77.6927 139° Southeast  Level Estimated
Wed 12:53:32 AM 10.9350 -77.3950 141° Southeast 500 575 33,000  Level FlightAware ADS-B
Wed 12:54:07 AM 10.8810 -77.3450 138° Southeast 506 582 33,000  Level FlightAware ADS-B
Wed 12:54:44 AM 10.8130 -77.2810 137° Southeast 503 579 33,000  Level FlightAware ADS-B
Wed 12:55:35 AM 10.7350 -77.2070 137° Southeast 502 578 33,000  Level FlightAware ADS-B
Wed 12:56:11 AM 10.6830 -77.1580 137° Southeast 502 578 33,000  Level FlightAware ADS-B
Wed 12:56:48 AM 10.6300 -77.1070 137° Southeast 502 578 33,000  Level FlightAware ADS-B
Wed 12:57:21 AM 10.5430 -77.0290 139° Southeast 33,000  Level FlightAware ADS-B
Wed 12:57:58 AM 10.4800 -76.9700 137° Southeast 502 578 33,000  Level FlightAware ADS-B
Wed 12:58:36 AM 10.4150 -76.9100 138° Southeast 502 578 33,000  Level FlightAware ADS-B
Wed 12:59:11 AM 10.3530 -76.8520 137° Southeast 502 578 33,000  Level FlightAware ADS-B
Wed 12:59:52 AM 10.2840 -76.7890 138° Southeast 501 577 33,000  Level FlightAware ADS-B
Wed 01:00:15 AM 10.2720 -76.7780 138° Southeast 501 577 33,000  Level FlightAware ADS-B
Wed 01:00:52 AM 10.1810 -76.6930 137° Southeast 501 577 33,000  Level FlightAware ADS-B
Wed 01:01:38 AM 10.1080 -76.6250 137° Southeast 500 575 33,000  Level FlightAware ADS-B
Wed 01:02:16 AM 10.0540 -76.5740 137° Southeast 500 575 33,000  Level FlightAware ADS-B
Wed 01:02:28 AM 10.0360 -76.5570 137° Southeast 500 575 33,000  Level FlightAware ADS-B
Wed 01:03:37 AM 9.9030 -76.4350 138° Southeast 498 573 33,000  Level FlightAware ADS-B
Wed 01:04:20 AM 9.8370 -76.3730 137° Southeast 490 564 33,000  Level FlightAware ADS-B
Wed 01:04:52 AM 9.7800 -76.3220 139° Southeast 488 562 33,000  Level FlightAware ADS-B
Wed 01:05:33 AM 9.7040 -76.2520 138° Southeast 493 567 33,000  Level FlightAware ADS-B
Wed 01:06:08 AM 9.6460 -76.1980 137° Southeast 493 567 33,000  Level FlightAware ADS-B
Wed 01:06:43 AM 9.5850 -76.1410 137° Southeast 493 567 33,000  Level FlightAware ADS-B
Wed 01:07:18 AM 9.5270 -76.0880 138° Southeast 493 567 33,000  Level FlightAware ADS-B
Wed 01:07:53 AM 9.4720 -76.0370 138° Southeast 492 566 33,000  Level FlightAware ADS-B
Wed 01:08:33 AM 9.4010 -75.9720 138° Southeast 491 565 33,000  Level FlightAware ADS-B
Wed 01:09:13 AM 9.3360 -75.9120 138° Southeast 488 562 33,000  Level FlightAware ADS-B
Wed 01:09:48 AM 9.2790 -75.8590 137° Southeast 486 559 33,000  Level FlightAware ADS-B
Wed 01:10:23 AM 9.2170 -75.8020 138° Southeast 481 554 33,000  Level FlightAware ADS-B
Wed 01:11:03 AM 9.1500 -75.7410 138° Southeast 479 551 33,000  Level FlightAware ADS-B
Wed 01:11:39 AM 9.0990 -75.6940 138° Southeast 481 554 33,000  Level FlightAware ADS-B
Wed 01:12:18 AM 9.0340 -75.6340 138° Southeast 482 555 33,000  Level FlightAware ADS-B
Wed 01:13:10 AM 8.9440 -75.5520 138° Southeast 481 554 33,000  Level FlightAware ADS-B
Wed 01:13:43 AM 8.8910 -75.5030 138° Southeast 479 551 33,000  Level FlightAware ADS-B
Wed 01:14:28 AM 8.8130 -75.4310 138° Southeast 478 550 33,000  Level FlightAware ADS-B
Wed 01:15:03 AM 8.7560 -75.3790 138° Southeast 478 550 33,000  Level FlightAware ADS-B
Wed 01:15:43 AM 8.6910 -75.3190 138° Southeast 477 549 33,000  Level FlightAware ADS-B
Wed 01:16:18 AM 8.6330 -75.2670 138° Southeast 478 550 33,000  Level FlightAware ADS-B
Wed 01:16:53 AM 8.5790 -75.2170 138° Southeast 478 550 33,000  Level FlightAware ADS-B
Wed 01:17:28 AM 8.5190 -75.1620 138° Southeast 479 551 33,000  Level FlightAware ADS-B
Wed 01:18:03 AM 8.4640 -75.1110 137° Southeast 480 552 33,000  Level FlightAware ADS-B
Wed 01:18:38 AM 8.4020 -75.0550 138° Southeast 481 554 33,000  Level FlightAware ADS-B
Wed 01:19:13 AM 8.3460 -75.0040 138° Southeast 483 556 33,000  Level FlightAware ADS-B
Wed 01:19:48 AM 8.2870 -74.9500 138° Southeast 483 556 33,000  Level FlightAware ADS-B
Wed 01:20:28 AM 8.2210 -74.8900 138° Southeast 481 554 33,000  Level FlightAware ADS-B
Wed 01:20:58 AM 8.1720 -74.8450 138° Southeast 481 554 33,000  Level FlightAware ADS-B
Wed 01:21:38 AM 8.1040 -74.7830 138° Southeast 482 555 33,000  Level FlightAware ADS-B
Wed 01:22:13 AM 8.0460 -74.7300 138° Southeast 479 551 33,000  Level FlightAware ADS-B
Wed 01:23:18 AM 7.9400 -74.6330 138° Southeast 478 550 33,000  Level FlightAware ADS-B
Wed 01:23:48 AM 7.8910 -74.5890 138° Southeast 479 551 33,000  Level FlightAware ADS-B
Wed 01:24:28 AM 7.8290 -74.5330 138° Southeast 480 552 33,000  Level FlightAware ADS-B
Wed 01:24:58 AM 7.7740 -74.4830 138° Southeast 480 552 33,000  Level FlightAware ADS-B
Wed 01:25:33 AM 7.7150 -74.4380 143° Southeast 478 550 33,000  Level FlightAware ADS-B
Wed 01:26:08 AM 7.6470 -74.3950 148° Southeast 477 549 33,000  Level FlightAware ADS-B
Wed 01:26:43 AM 7.5800 -74.3540 149° Southeast 478 550 33,000  Level FlightAware ADS-B
Wed 01:27:18 AM 7.5130 -74.3130 149° Southeast 481 554 33,000  Level FlightAware ADS-B
Wed 01:27:53 AM 7.4480 -74.2740 149° Southeast 482 555 33,000  Level FlightAware ADS-B
Wed 01:28:30 AM 7.3880 -74.2380 149° Southeast 482 555 33,000  Level FlightAware ADS-B
Wed 01:29:02 AM 7.3150 -74.1920 148° Southeast 479 551 33,000  Level FlightAware ADS-B
Wed 01:29:47 AM 7.2300 -74.1400 149° Southeast 478 550 33,000  Level FlightAware ADS-B
Wed 01:30:22 AM 7.1640 -74.1000 149° Southeast 478 550 33,000  Level FlightAware ADS-B
Wed 01:30:57 AM 7.0970 -74.0590 149° Southeast 478 550 33,000  Level FlightAware ADS-B
Wed 01:31:32 AM 7.0390 -74.0230 148° Southeast 480 552 33,000  Level FlightAware ADS-B
Wed 01:32:19 AM 6.9550 -73.9720 149° Southeast 482 555 33,000  Level FlightAware ADS-B
Wed 01:32:55 AM 6.8970 -73.9370 149° Southeast 482 555 33,000  Level FlightAware ADS-B
Wed 01:33:31 AM 6.8380 -73.9010 149° Southeast 482 555 33,000  Level FlightAware ADS-B
Wed 01:34:07 AM 6.7800 -73.8660 149° Southeast 482 555 33,000  Level FlightAware ADS-B
Wed 01:34:40 AM 6.6660 -73.7950 148° Southeast 491 565 33,000  Level FlightAware ADS-B
Wed 01:35:18 AM 6.5940 -73.7520 149° Southeast 488 562 33,000  Level FlightAware ADS-B
Wed 01:35:54 AM 6.5230 -73.7080 148° Southeast 485 558 33,000  Level FlightAware ADS-B
Wed 01:36:26 AM 6.4620 -73.6710 149° Southeast 484 557 33,000  Level FlightAware ADS-B
Wed 01:37:02 AM 6.3930 -73.6290 149° Southeast 483 556 33,000  Level FlightAware ADS-B
Wed 01:37:39 AM 6.3230 -73.5870 149° Southeast 481 554 33,000  Level FlightAware ADS-B
Wed 01:38:12 AM 6.2590 -73.5480 149° Southeast 479 551 33,000  Level FlightAware ADS-B
Wed 01:38:46 AM 6.1960 -73.5090 148° Southeast 477 549 33,000  Level FlightAware ADS-B
Wed 01:39:23 AM 6.1250 -73.4660 149° Southeast 477 549 33,000  Level FlightAware ADS-B
Wed 01:39:59 AM 6.0560 -73.4240 149° Southeast 479 551 33,000  Level FlightAware ADS-B
Wed 01:40:31 AM 5.9970 -73.3880 149° Southeast 479 551 33,000  Level FlightAware ADS-B
Wed 01:41:09 AM 5.9360 -73.3500 148° Southeast 479 551 33,000  Level FlightAware ADS-B
Wed 01:41:45 AM 5.8790 -73.3140 148° Southeast 479 551 33,000  Level FlightAware ADS-B
Wed 01:42:21 AM 5.8210 -73.2780 148° Southeast 479 551 33,000  Level FlightAware ADS-B
Wed 01:42:57 AM 5.7640 -73.2420 148° Southeast 479 551 33,000  Level FlightAware ADS-B
Wed 01:43:33 AM 5.7060 -73.2060 148° Southeast 479 551 33,000  Level FlightAware ADS-B
Wed 01:44:09 AM 5.6490 -73.1700 148° Southeast 479 551 33,000  Level FlightAware ADS-B
Wed 01:44:48 AM 5.5100 -73.0930 151° Southeast 482 555 33,000  Level FlightAware ADS-B
Wed 01:45:20 AM 5.4460 -73.0520 147° Southeast 484 557 33,000  Level FlightAware ADS-B
Wed 01:45:56 AM 5.3820 -73.0060 144° Southeast 488 562 33,000  Level FlightAware ADS-B
Wed 01:46:30 AM 5.3170 -72.9590 144° Southeast 491 565 33,000  Level FlightAware ADS-B
Wed 01:47:06 AM 5.2510 -72.9130 145° Southeast 489 563 33,000  Level FlightAware ADS-B
Wed 01:47:42 AM 5.1830 -72.8670 146° Southeast 488 562 33,000  Level FlightAware ADS-B
Wed 01:48:14 AM 5.1250 -72.8270 146° Southeast 486 559 33,000  Level FlightAware ADS-B
Wed 01:48:51 AM 5.0650 -72.7850 145° Southeast 485 558 33,000  Level FlightAware ADS-B
Wed 01:49:27 AM 5.0080 -72.7460 146° Southeast 485 558 33,000  Level FlightAware ADS-B
Wed 01:50:03 AM 4.9520 -72.7060 145° Southeast 485 558 33,000  Level FlightAware ADS-B
Wed 01:50:40 AM 4.8940 -72.6660 146° Southeast 485 558 33,000  Level FlightAware ADS-B
Wed 01:51:16 AM 4.8380 -72.6260 145° Southeast 485 558 33,000  Level FlightAware ADS-B
Wed 01:51:52 AM 4.7820 -72.5870 145° Southeast 485 558 33,000  Level FlightAware ADS-B
Wed 01:52:28 AM 4.7260 -72.5470 145° Southeast 485 558 33,000  Level FlightAware ADS-B
Wed 01:53:05 AM 4.6680 -72.5070 145° Southeast 485 558 33,000  Level FlightAware ADS-B
Wed 01:53:41 AM 4.6110 -72.4670 145° Southeast 485 558 33,000  Level FlightAware ADS-B
Wed 01:54:19 AM 4.5520 -72.4250 145° Southeast 485 558 33,000  Level FlightAware ADS-B
Wed 01:54:56 AM 4.4940 -72.3850 145° Southeast 485 558 33,000  Level FlightAware ADS-B
Wed 01:55:32 AM 4.4380 -72.3450 145° Southeast 485 558 33,000  Level FlightAware ADS-B
Wed 01:56:08 AM 4.3820 -72.3060 145° Southeast 485 558 33,000  Level FlightAware ADS-B
Wed 01:56:44 AM 4.3260 -72.2660 145° Southeast 485 558 33,000  Level FlightAware ADS-B
Wed 01:57:20 AM 4.2690 -72.2270 146° Southeast 485 558 33,000  Level FlightAware ADS-B
Wed 01:57:55 AM 4.2150 -72.1880 144° Southeast 485 558 33,000 18 Level FlightAware ADS-B
Wed 02:00:00 AM 4.0053 -72.0050 145° Southeast  Level Estimated
Wed 02:01:00 AM 3.8928 -71.9329 147° Southeast  Level FlightAware Approximate
Wed 02:02:00 AM 3.7804 -71.8609 147° Southeast  Level FlightAware Approximate
Wed 02:03:00 AM 3.6680 -71.7888 147° Southeast  Level FlightAware Approximate
Wed 02:04:00 AM 3.5555 -71.7168 147° Southeast  Level FlightAware Approximate
Wed 02:05:00 AM 3.4431 -71.6448 147° Southeast  Level FlightAware Approximate
Wed 02:06:00 AM 3.3306 -71.5728 147° Southeast  Level FlightAware Approximate
Wed 02:07:00 AM 3.2181 -71.5009 147° Southeast  Level FlightAware Approximate
Wed 02:08:00 AM 3.1057 -71.4289 147° Southeast  Level FlightAware Approximate
Wed 02:09:00 AM 2.9932 -71.3570 147° Southeast  Level FlightAware Approximate
Wed 02:10:00 AM 2.8807 -71.2851 147° Southeast  Level FlightAware Approximate
Wed 02:11:00 AM 2.7682 -71.2132 147° Southeast  Level FlightAware Approximate
Wed 02:12:00 AM 2.6558 -71.1413 147° Southeast  Level FlightAware Approximate
Wed 02:13:00 AM 2.5433 -71.0694 147° Southeast  Level FlightAware Approximate
Wed 02:14:00 AM 2.4308 -70.9975 147° Southeast  Level FlightAware Approximate
Wed 02:15:00 AM 2.3183 -70.9257 147° Southeast  Level FlightAware Approximate
Wed 02:16:00 AM 2.2058 -70.8538 147° Southeast  Level FlightAware Approximate
Wed 02:17:00 AM 2.0933 -70.7820 147° Southeast  Level FlightAware Approximate
Wed 02:18:00 AM 1.9807 -70.7102 147° Southeast  Level FlightAware Approximate
Wed 02:19:00 AM 1.8682 -70.6384 147° Southeast  Level FlightAware Approximate
Wed 02:20:00 AM 1.7557 -70.5666 147° Southeast  Level FlightAware Approximate
Wed 02:21:00 AM 1.6432 -70.4948 147° Southeast  Level FlightAware Approximate
Wed 02:22:00 AM 1.5307 -70.4230 147° Southeast  Level FlightAware Approximate
Wed 02:23:00 AM 1.4182 -70.3512 147° Southeast  Level FlightAware Approximate
Wed 02:24:00 AM 1.3056 -70.2794 147° Southeast  Level FlightAware Approximate
Wed 02:25:00 AM 1.2040 -70.2072 138° Southeast  Level FlightAware Approximate
Wed 02:26:00 AM 1.1043 -70.1185 138° Southeast  Level FlightAware Approximate
Wed 02:27:00 AM 1.0046 -70.0297 138° Southeast  Level FlightAware Approximate
Wed 02:28:00 AM 0.9049 -69.9410 138° Southeast  Level FlightAware Approximate
Wed 02:29:00 AM 0.8052 -69.8523 138° Southeast  Level FlightAware Approximate
Wed 02:30:00 AM 0.7055 -69.7636 138° Southeast  Level FlightAware Approximate
Wed 02:31:00 AM 0.6058 -69.6749 138° Southeast  Level FlightAware Approximate
Wed 02:32:00 AM 0.5061 -69.5861 138° Southeast  Level FlightAware Approximate
Wed 02:33:00 AM 0.4064 -69.4974 138° Southeast  Level FlightAware Approximate
Wed 02:34:00 AM 0.3067 -69.4087 138° Southeast  Level FlightAware Approximate
Wed 02:35:00 AM 0.2069 -69.3200 138° Southeast  Level FlightAware Approximate
Wed 02:36:00 AM 0.1072 -69.2313 138° Southeast  Level FlightAware Approximate
Wed 02:37:00 AM 0.0075 -69.1426 138° Southeast  Level FlightAware Approximate
Wed 02:38:00 AM -0.0922 -69.0539 138° Southeast  Level FlightAware Approximate
Wed 02:39:00 AM -0.1919 -68.9652 138° Southeast  Level FlightAware Approximate
Wed 02:40:00 AM -0.2916 -68.8765 138° Southeast  Level FlightAware Approximate
Wed 02:41:00 AM -0.3913 -68.7878 138° Southeast  Level FlightAware Approximate
Wed 02:42:00 AM -0.4910 -68.6991 138° Southeast  Level FlightAware Approximate
Wed 02:43:00 AM -0.5907 -68.6104 138° Southeast  Level FlightAware Approximate
Wed 02:44:00 AM -0.6904 -68.5216 138° Southeast  Level FlightAware Approximate
Wed 02:45:00 AM -0.7901 -68.4329 138° Southeast  Level FlightAware Approximate
Wed 02:46:00 AM -0.8898 -68.3442 138° Southeast  Level FlightAware Approximate
Wed 02:47:00 AM -0.9895 -68.2555 138° Southeast  Level FlightAware Approximate
Wed 02:48:00 AM -1.0892 -68.1667 138° Southeast  Level FlightAware Approximate
Wed 02:49:00 AM -1.1889 -68.0780 138° Southeast  Level FlightAware Approximate
Wed 02:50:00 AM -1.2886 -67.9892 138° Southeast  Level FlightAware Approximate
Wed 02:51:00 AM -1.3883 -67.9005 138° Southeast  Level FlightAware Approximate
Wed 02:52:00 AM -1.4880 -67.8117 138° Southeast  Level FlightAware Approximate
Wed 02:53:00 AM -1.5877 -67.7230 138° Southeast  Level FlightAware Approximate
Wed 02:54:00 AM -1.6873 -67.6342 138° Southeast  Level FlightAware Approximate
Wed 02:55:00 AM -1.7870 -67.5454 138° Southeast  Level FlightAware Approximate
Wed 02:56:00 AM -1.8867 -67.4566 138° Southeast  Level FlightAware Approximate
Wed 02:57:00 AM -1.9863 -67.3678 138° Southeast  Level FlightAware Approximate
Wed 02:58:00 AM -2.0860 -67.2790 138° Southeast  Level FlightAware Approximate
Wed 02:59:00 AM -2.1857 -67.1901 138° Southeast  Level FlightAware Approximate
Wed 03:00:00 AM -2.2853 -67.1013 138° Southeast  Level FlightAware Approximate
Wed 03:01:00 AM -2.3849 -67.0124 138° Southeast  Level FlightAware Approximate
Wed 03:02:00 AM -2.4846 -66.9236 138° Southeast  Level FlightAware Approximate
Wed 03:03:00 AM -2.5842 -66.8347 138° Southeast  Level FlightAware Approximate
Wed 03:04:00 AM -2.6838 -66.7458 138° Southeast  Level FlightAware Approximate
Wed 03:05:00 AM -2.7835 -66.6569 138° Southeast  Level FlightAware Approximate
Wed 03:06:00 AM -2.8831 -66.5680 138° Southeast  Level FlightAware Approximate
Wed 03:07:00 AM -2.9827 -66.4790 138° Southeast  Level FlightAware Approximate
Wed 03:08:00 AM -3.0823 -66.3901 138° Southeast  Level FlightAware Approximate
Wed 03:09:00 AM -3.1819 -66.3011 138° Southeast  Level FlightAware Approximate
Wed 03:10:00 AM -3.2815 -66.2121 138° Southeast  Level FlightAware Approximate
Wed 03:11:00 AM -3.3810 -66.1231 138° Southeast  Level FlightAware Approximate
Wed 03:12:00 AM -3.4806 -66.0341 138° Southeast  Level FlightAware Approximate
Wed 03:13:00 AM -3.5802 -65.9451 138° Southeast  Level FlightAware Approximate
Wed 03:14:00 AM -3.6797 -65.8560 138° Southeast  Level FlightAware Approximate
Wed 03:15:00 AM -3.7792 -65.7669 138° Southeast  Level FlightAware Approximate
Wed 03:16:00 AM -3.8788 -65.6778 138° Southeast  Level FlightAware Approximate
Wed 03:17:00 AM -3.9783 -65.5887 138° Southeast  Level FlightAware Approximate
Wed 03:18:00 AM -4.0778 -65.4996 138° Southeast  Level FlightAware Approximate
Wed 03:19:00 AM -4.1773 -65.4104 138° Southeast  Level FlightAware Approximate
Wed 03:20:00 AM -4.2768 -65.3212 138° Southeast  Level FlightAware Approximate
Wed 03:21:00 AM -4.3763 -65.2320 138° Southeast  Level FlightAware Approximate
Wed 03:22:00 AM -4.4757 -65.1428 138° Southeast  Level FlightAware Approximate
Wed 03:23:00 AM -4.5752 -65.0535 138° Southeast  Level FlightAware Approximate
Wed 03:24:00 AM -4.6747 -64.9642 138° Southeast  Level FlightAware Approximate
Wed 03:25:00 AM -4.7741 -64.8749 138° Southeast  Level FlightAware Approximate
Wed 03:26:00 AM -4.8735 -64.7856 138° Southeast  Level FlightAware Approximate
Wed 03:27:00 AM -4.9729 -64.6962 138° Southeast  Level FlightAware Approximate
Wed 03:28:00 AM -5.0724 -64.6068 138° Southeast  Level FlightAware Approximate
Wed 03:29:00 AM -5.1717 -64.5174 138° Southeast  Level FlightAware Approximate
Wed 03:30:00 AM -5.2711 -64.4279 138° Southeast  Level FlightAware Approximate
Wed 03:31:00 AM -5.3705 -64.3385 138° Southeast  Level FlightAware Approximate
Wed 03:32:00 AM -5.4698 -64.2490 138° Southeast  Level FlightAware Approximate
Wed 03:33:00 AM -5.5692 -64.1594 138° Southeast  Level FlightAware Approximate
Wed 03:34:00 AM -5.6685 -64.0699 138° Southeast  Level FlightAware Approximate
Wed 03:35:00 AM -5.7678 -63.9803 138° Southeast  Level FlightAware Approximate
Wed 03:36:00 AM -5.8671 -63.8907 138° Southeast  Level FlightAware Approximate
Wed 03:37:00 AM -5.9664 -63.8010 138° Southeast  Level FlightAware Approximate
Wed 03:38:00 AM -6.0657 -63.7113 138° Southeast  Level FlightAware Approximate
Wed 03:39:00 AM -6.1649 -63.6216 138° Southeast  Level FlightAware Approximate
Wed 03:40:00 AM -6.2642 -63.5318 138° Southeast  Level FlightAware Approximate
Wed 03:41:00 AM -6.3634 -63.4420 138° Southeast  Level FlightAware Approximate
Wed 03:42:00 AM -6.4626 -63.3522 138° Southeast  Level FlightAware Approximate
Wed 03:43:00 AM -6.5618 -63.2623 138° Southeast  Level FlightAware Approximate
Wed 03:44:00 AM -6.6610 -63.1724 138° Southeast  Level FlightAware Approximate
Wed 03:45:00 AM -6.7601 -63.0825 138° Southeast  Level FlightAware Approximate
Wed 03:46:00 AM -6.8593 -62.9925 138° Southeast  Level FlightAware Approximate
Wed 03:47:00 AM -6.9584 -62.9025 138° Southeast  Level FlightAware Approximate
Wed 03:48:00 AM -7.0575 -62.8125 138° Southeast  Level FlightAware Approximate
Wed 03:49:00 AM -7.1566 -62.7224 138° Southeast  Level FlightAware Approximate
Wed 03:50:00 AM -7.2557 -62.6323 138° Southeast  Level FlightAware Approximate
Wed 03:51:00 AM -7.3547 -62.5421 138° Southeast  Level FlightAware Approximate
Wed 03:52:00 AM -7.4538 -62.4519 138° Southeast  Level FlightAware Approximate
Wed 03:53:00 AM -7.5528 -62.3617 138° Southeast  Level FlightAware Approximate
Wed 03:54:00 AM -7.6518 -62.2714 138° Southeast  Level FlightAware Approximate
Wed 03:55:00 AM -7.7508 -62.1811 138° Southeast  Level FlightAware Approximate
Wed 03:56:00 AM -7.8497 -62.0907 138° Southeast  Level FlightAware Approximate
Wed 03:57:00 AM -7.9487 -62.0003 138° Southeast  Level FlightAware Approximate
Wed 03:58:00 AM -8.0474 -61.9100 138° Southeast  Level FlightAware Approximate
Wed 03:59:00 AM -8.1462 -61.8197 138° Southeast  Level FlightAware Approximate
Wed 04:00:00 AM -8.2449 -61.7293 138° Southeast  Level FlightAware Approximate
Wed 04:01:00 AM -8.3436 -61.6389 138° Southeast  Level FlightAware Approximate
Wed 04:02:00 AM -8.4422 -61.5484 138° Southeast  Level FlightAware Approximate
Wed 04:03:00 AM -8.5409 -61.4579 138° Southeast  Level FlightAware Approximate
Wed 04:04:00 AM -8.6395 -61.3673 138° Southeast  Level FlightAware Approximate
Wed 04:05:00 AM -8.7381 -61.2767 138° Southeast  Level FlightAware Approximate
Wed 04:06:00 AM -8.8367 -61.1860 138° Southeast  Level FlightAware Approximate
Wed 04:07:00 AM -8.9353 -61.0953 138° Southeast  Level FlightAware Approximate
Wed 04:08:00 AM -9.0338 -61.0046 138° Southeast  Level FlightAware Approximate
Wed 04:09:00 AM -9.1323 -60.9137 138° Southeast  Level FlightAware Approximate
Wed 04:10:00 AM -9.2308 -60.8229 138° Southeast  Level FlightAware Approximate
Wed 04:11:00 AM -9.3293 -60.7320 138° Southeast  Level FlightAware Approximate
Wed 04:12:00 AM -9.4278 -60.6410 138° Southeast  Level FlightAware Approximate
Wed 04:13:00 AM -9.5262 -60.5500 138° Southeast  Level FlightAware Approximate
Wed 04:14:00 AM -9.6246 -60.4589 138° Southeast  Level FlightAware Approximate
Wed 04:15:00 AM -9.7230 -60.3678 138° Southeast  Level FlightAware Approximate
Wed 04:16:00 AM -9.8213 -60.2766 138° Southeast  Level FlightAware Approximate
Wed 04:17:00 AM -9.9197 -60.1854 138° Southeast  Level FlightAware Approximate
Wed 04:18:00 AM -10.0180 -60.0941 138° Southeast  Level FlightAware Approximate
Wed 04:19:00 AM -10.1164 -60.0026 138° Southeast  Level FlightAware Approximate
Wed 04:20:00 AM -10.2149 -59.9111 138° Southeast  Level FlightAware Approximate
Wed 04:21:00 AM -10.3133 -59.8195 138° Southeast  Level FlightAware Approximate
Wed 04:22:00 AM -10.4116 -59.7278 137° Southeast  Level FlightAware Approximate
Wed 04:23:00 AM -10.5100 -59.6361 137° Southeast  Level FlightAware Approximate
Wed 04:24:00 AM -10.6083 -59.5443 137° Southeast  Level FlightAware Approximate
Wed 04:25:00 AM -10.7066 -59.4524 137° Southeast  Level FlightAware Approximate
Wed 04:26:00 AM -10.8049 -59.3605 137° Southeast  Level FlightAware Approximate
Wed 04:27:00 AM -10.9031 -59.2686 137° Southeast  Level FlightAware Approximate
Wed 04:28:00 AM -11.0014 -59.1765 137° Southeast  Level FlightAware Approximate
Wed 04:29:00 AM -11.0996 -59.0844 137° Southeast  Level FlightAware Approximate
Wed 04:30:00 AM -11.1977 -58.9923 137° Southeast  Level FlightAware Approximate
Wed 04:31:00 AM -11.2959 -58.9001 137° Southeast  Level FlightAware Approximate
Wed 04:32:00 AM -11.3940 -58.8078 137° Southeast  Level FlightAware Approximate
Wed 04:33:00 AM -11.4921 -58.7155 137° Southeast  Level FlightAware Approximate
Wed 04:34:00 AM -11.5901 -58.6231 137° Southeast  Level FlightAware Approximate
Wed 04:35:00 AM -11.6881 -58.5306 137° Southeast  Level FlightAware Approximate
Wed 04:36:00 AM -11.7861 -58.4380 137° Southeast  Level FlightAware Approximate
Wed 04:37:00 AM -11.8841 -58.3455 137° Southeast  Level FlightAware Approximate
Wed 04:38:00 AM -11.9820 -58.2528 137° Southeast  Level FlightAware Approximate
Wed 04:39:00 AM -12.0799 -58.1600 137° Southeast  Level FlightAware Approximate
Wed 04:40:00 AM -12.1778 -58.0672 137° Southeast  Level FlightAware Approximate
Wed 04:41:00 AM -12.2756 -57.9744 137° Southeast  Level FlightAware Approximate
Wed 04:42:00 AM -12.3734 -57.8814 137° Southeast  Level FlightAware Approximate
Wed 04:43:00 AM -12.4712 -57.7884 137° Southeast  Level FlightAware Approximate
Wed 04:44:00 AM -12.5689 -57.6954 137° Southeast  Level FlightAware Approximate
Wed 04:45:00 AM -12.6666 -57.6022 137° Southeast  Level FlightAware Approximate
Wed 04:46:00 AM -12.7643 -57.5090 137° Southeast  Level FlightAware Approximate
Wed 04:47:00 AM -12.8620 -57.4157 137° Southeast  Level FlightAware Approximate
Wed 04:48:00 AM -12.9596 -57.3223 137° Southeast  Level FlightAware Approximate
Wed 04:49:00 AM -13.0572 -57.2289 137° Southeast  Level FlightAware Approximate
Wed 04:50:00 AM -13.1547 -57.1354 137° Southeast  Level FlightAware Approximate
Wed 04:51:00 AM -13.2522 -57.0418 137° Southeast  Level FlightAware Approximate
Wed 04:52:00 AM -13.3497 -56.9481 137° Southeast  Level FlightAware Approximate
Wed 04:53:00 AM -13.4472 -56.8544 137° Southeast  Level FlightAware Approximate
Wed 04:54:00 AM -13.5446 -56.7606 137° Southeast  Level FlightAware Approximate
Wed 04:55:00 AM -13.6419 -56.6667 137° Southeast  Level FlightAware Approximate
Wed 04:56:00 AM -13.7393 -56.5727 137° Southeast  Level FlightAware Approximate
Wed 04:57:00 AM -13.8366 -56.4787 137° Southeast  Level FlightAware Approximate
Wed 04:58:00 AM -13.9338 -56.3845 137° Southeast  Level FlightAware Approximate
Wed 04:59:00 AM -14.0311 -56.2903 137° Southeast  Level FlightAware Approximate
Wed 05:00:00 AM -14.1283 -56.1960 137° Southeast  Level FlightAware Approximate
Wed 05:01:00 AM -14.2254 -56.1017 137° Southeast  Level FlightAware Approximate
Wed 05:02:00 AM -14.3225 -56.0072 137° Southeast  Level FlightAware Approximate
Wed 05:03:00 AM -14.4196 -55.9127 137° Southeast  Level FlightAware Approximate
Wed 05:04:00 AM -14.5167 -55.8181 137° Southeast  Level FlightAware Approximate
Wed 05:05:00 AM -14.6137 -55.7234 137° Southeast  Level FlightAware Approximate
Wed 05:06:00 AM -14.7107 -55.6286 137° Southeast  Level FlightAware Approximate
Wed 05:07:00 AM -14.8076 -55.5338 137° Southeast  Level FlightAware Approximate
Wed 05:08:00 AM -14.9045 -55.4388 137° Southeast  Level FlightAware Approximate
Wed 05:09:00 AM -15.0013 -55.3438 137° Southeast  Level FlightAware Approximate
Wed 05:10:00 AM -15.0981 -55.2487 137° Southeast  Level FlightAware Approximate
Wed 05:11:00 AM -15.1949 -55.1535 136° Southeast  Level FlightAware Approximate
Wed 05:12:00 AM -15.2916 -55.0582 136° Southeast  Level FlightAware Approximate
Wed 05:13:00 AM -15.3883 -54.9628 136° Southeast  Level FlightAware Approximate
Wed 05:14:00 AM -15.4850 -54.8673 136° Southeast  Level FlightAware Approximate
Wed 05:15:00 AM -15.5816 -54.7718 136° Southeast  Level FlightAware Approximate
Wed 05:16:00 AM -15.6782 -54.6761 136° Southeast  Level FlightAware Approximate
Wed 05:17:00 AM -15.7747 -54.5804 136° Southeast  Level FlightAware Approximate
Wed 05:18:00 AM -15.8712 -54.4846 136° Southeast  Level FlightAware Approximate
Wed 05:19:00 AM -15.9676 -54.3886 136° Southeast  Level FlightAware Approximate
Wed 05:20:00 AM -16.0640 -54.2926 136° Southeast  Level FlightAware Approximate
Wed 05:21:00 AM -16.1604 -54.1965 136° Southeast  Level FlightAware Approximate
Wed 05:22:00 AM -16.2567 -54.1003 136° Southeast  Level FlightAware Approximate
Wed 05:23:00 AM -16.3530 -54.0040 136° Southeast  Level FlightAware Approximate
Wed 05:24:00 AM -16.4492 -53.9076 136° Southeast  Level FlightAware Approximate
Wed 05:25:00 AM -16.5454 -53.8111 136° Southeast  Level FlightAware Approximate
Wed 05:26:00 AM -16.6415 -53.7146 136° Southeast  Level FlightAware Approximate
Wed 05:27:00 AM -16.7376 -53.6179 136° Southeast  Level FlightAware Approximate
Wed 05:28:00 AM -16.8337 -53.5211 136° Southeast  Level FlightAware Approximate
Wed 05:29:00 AM -16.9297 -53.4242 136° Southeast  Level FlightAware Approximate
Wed 05:30:00 AM -17.0257 -53.3273 136° Southeast  Level FlightAware Approximate
Wed 05:31:00 AM -17.1216 -53.2302 136° Southeast  Level FlightAware Approximate
Wed 05:32:00 AM -17.2174 -53.1330 136° Southeast  Level FlightAware Approximate
Wed 05:33:00 AM -17.3133 -53.0358 136° Southeast  Level FlightAware Approximate
Wed 05:34:00 AM -17.4090 -52.9384 136° Southeast  Level FlightAware Approximate
Wed 05:35:00 AM -17.5048 -52.8409 136° Southeast  Level FlightAware Approximate
Wed 05:36:00 AM -17.6004 -52.7433 136° Southeast  Level FlightAware Approximate
Wed 05:37:00 AM -17.6961 -52.6456 136° Southeast  Level FlightAware Approximate
Wed 05:38:00 AM -17.7917 -52.5479 136° Southeast  Level FlightAware Approximate
Wed 05:38:54 AM -18.6320 -51.0690 136° Southeast 516 594 37,000  Level FlightAware ADS-B
Wed 05:39:00 AM -17.8872 -52.4500 136° Southeast  Level FlightAware Approximate
Wed 05:39:27 AM -18.6800 -51.0160 134° Southeast 516 594 37,000  Level FlightAware ADS-B
Wed 05:40:49 AM -18.7960 -50.8900 134° Southeast 516 594 37,000  Level FlightAware ADS-B
Wed 05:41:16 AM -18.8340 -50.8480 134° Southeast 516 594 37,000  Level FlightAware ADS-B
Wed 05:42:05 AM -18.9030 -50.7730 134° Southeast 516 594 37,000  Level FlightAware ADS-B
Wed 05:42:42 AM -18.9550 -50.7160 134° Southeast 516 594 37,000  Level FlightAware ADS-B
Wed 05:43:21 AM -19.0750 -50.5890 135° Southeast 514 592 37,000  Level FlightAware ADS-B
Wed 05:43:29 AM -19.0900 -50.5720 133° Southeast 513 590 37,000  Level FlightAware ADS-B
Wed 05:44:27 AM -19.1850 -50.4680 134° Southeast 513 590 37,000  Level FlightAware ADS-B
Wed 05:45:02 AM -19.2430 -50.4060 135° Southeast 512 589 37,000  Level FlightAware ADS-B
Wed 05:45:39 AM -19.3020 -50.3400 133° Southeast 511 588 37,000  Level FlightAware ADS-B
Wed 05:46:15 AM -19.3620 -50.2740 134° Southeast 510 587 37,000  Level FlightAware ADS-B
Wed 05:46:49 AM -19.4190 -50.2120 134° Southeast 510 587 37,000  Level FlightAware ADS-B
Wed 05:47:20 AM -19.4690 -50.1570 134° Southeast 510 587 37,000  Level FlightAware ADS-B
Wed 05:48:05 AM -19.5210 -50.1000 134° Southeast 510 587 37,000  Level FlightAware ADS-B
Wed 05:48:41 AM -19.5810 -50.0330 134° Southeast 510 587 37,000  Level FlightAware ADS-B
Wed 05:49:13 AM -19.6380 -49.9700 134° Southeast 510 587 37,000  Level FlightAware ADS-B
Wed 05:49:46 AM -19.7060 -49.8970 135° Southeast 510 587 37,000  Level FlightAware ADS-B
Wed 05:50:23 AM -19.7690 -49.8280 134° Southeast 510 587 37,000  Level FlightAware ADS-B
Wed 05:51:01 AM -19.8330 -49.7580 134° Southeast 512 589 37,000  Level FlightAware ADS-B
Wed 05:51:33 AM -19.8860 -49.7000 134° Southeast 512 589 37,000  Level FlightAware ADS-B
Wed 05:52:09 AM -19.9450 -49.6350 134° Southeast 512 589 37,000  Level FlightAware ADS-B
Wed 05:52:44 AM -19.9910 -49.5850 134° Southeast 512 589 37,000  Level FlightAware ADS-B
Wed 05:53:17 AM -20.0370 -49.5350 134° Southeast 512 589 37,000  Level FlightAware ADS-B
Wed 05:53:55 AM -20.0970 -49.4690 134° Southeast 512 589 37,000  Level FlightAware ADS-B
Wed 05:54:27 AM -20.1730 -49.3840 134° Southeast 512 589 37,000  Level FlightAware ADS-B
Wed 05:55:03 AM -20.2310 -49.3210 134° Southeast 512 589 37,000  Level FlightAware ADS-B
Wed 05:55:38 AM -20.2840 -49.2620 134° Southeast 512 589 37,000  Level FlightAware ADS-B
Wed 05:56:13 AM -20.3330 -49.2080 134° Southeast 511 588 37,000  Level FlightAware ADS-B
Wed 05:56:51 AM -20.4070 -49.1260 134° Southeast 511 588 37,000  Level FlightAware ADS-B
Wed 05:57:23 AM -20.4600 -49.0680 134° Southeast 511 588 37,000  Level FlightAware ADS-B
Wed 05:57:59 AM -20.5190 -49.0020 134° Southeast 512 589 37,000  Level FlightAware ADS-B
Wed 05:58:35 AM -20.5810 -48.9340 134° Southeast 512 589 37,000  Level FlightAware ADS-B
Wed 05:59:11 AM -20.6370 -48.8710 134° Southeast 513 590 37,000  Level FlightAware ADS-B
Wed 05:59:43 AM -20.6900 -48.8120 134° Southeast 514 592 37,000  Level FlightAware ADS-B
Wed 05:59:55 AM -20.7110 -48.7890 134° Southeast 513 590 37,000  Level FlightAware ADS-B
Wed 06:00:43 AM -20.7680 -48.7240 133° Southeast 514 592 37,000  Level FlightAware ADS-B
Wed 06:01:35 AM -20.8740 -48.6060 134° Southeast 514 592 37,000  Level FlightAware ADS-B
Wed 06:02:11 AM -20.9320 -48.5400 133° Southeast 514 592 37,000  Level FlightAware ADS-B
Wed 06:02:44 AM -20.9850 -48.4810 134° Southeast 514 592 37,000  Level FlightAware ADS-B
Wed 06:03:20 AM -21.0450 -48.4140 134° Southeast 514 592 37,000  Level FlightAware ADS-B
Wed 06:03:29 AM -21.0580 -48.3990 133° Southeast 513 590 37,000  Level FlightAware ADS-B
Wed 06:04:33 AM -21.1460 -48.3000 134° Southeast 512 589 37,000  Level FlightAware ADS-B
Wed 06:05:09 AM -21.2040 -48.2340 133° Southeast 512 589 37,000  Level FlightAware ADS-B
Wed 06:05:48 AM -21.2880 -48.1380 133° Southeast 513 590 37,000  Level FlightAware ADS-B
Wed 06:06:24 AM -21.3490 -48.0700 134° Southeast 513 590 37,000  Level FlightAware ADS-B
Wed 06:07:02 AM -21.4110 -47.9990 133° Southeast 513 590 37,000  Level FlightAware ADS-B
Wed 06:07:34 AM -21.4620 -47.9420 134° Southeast 513 590 37,000  Level FlightAware ADS-B
Wed 06:08:14 AM -21.5270 -47.8680 133° Southeast 515 593 37,000  Level FlightAware ADS-B
Wed 06:08:55 AM -21.5940 -47.7920 133° Southeast 516 594 37,000 -162 Level FlightAware ADS-B
Wed 06:09:28 AM -21.6460 -47.7320 133° Southeast 513 590 36,800 -600 Descending FlightAware ADS-B
Wed 06:10:05 AM -21.7070 -47.6630 134° Southeast 492 566 36,300 -818 Descending FlightAware ADS-B
Wed 06:10:34 AM -21.7470 -47.6180 134° Southeast 476 548 35,900 -1,048 Descending FlightAware ADS-B
Wed 06:11:08 AM -21.7880 -47.5710 133° Southeast 467 537 35,200 -1,479 Descending FlightAware ADS-B
Wed 06:11:47 AM -21.8380 -47.5130 133° Southeast 460 529 34,100 -1,890 Descending FlightAware ADS-B
Wed 06:12:21 AM -21.8890 -47.4540 133° Southeast 454 522 32,900 -1,944 Descending FlightAware ADS-B
Wed 06:12:58 AM -21.9410 -47.3950 134° Southeast 442 509 31,800 -2,533 Descending FlightAware ADS-B
Wed 06:13:06 AM -21.9730 -47.3620 136° Southeast 433 498 31,000 -2,471 Descending FlightAware ADS-B
Wed 06:13:49 AM -22.0440 -47.3190 151° Southeast 408 470 29,700 -1,895 Descending FlightAware ADS-B
Wed 06:14:22 AM -22.1040 -47.2950 160° South 398 458 28,600 -2,000 Descending FlightAware ADS-B
Wed 06:14:58 AM -22.1640 -47.2710 160° South 393 452 27,400 -2,083 Descending FlightAware ADS-B
Wed 06:15:34 AM -22.2270 -47.2450 159° South 388 447 26,100 -2,118 Descending FlightAware ADS-B
Wed 06:16:06 AM -22.2790 -47.2230 159° South 384 442 25,000 -2,029 Descending FlightAware ADS-B
Wed 06:16:42 AM -22.3390 -47.1980 159° South 380 437 23,800 -1,833 Descending FlightAware ADS-B
Wed 06:17:18 AM -22.3990 -47.1740 160° South 375 432 22,800 -1,583 Descending FlightAware ADS-B
Wed 06:17:54 AM -22.4550 -47.1500 158° South 368 423 21,900 -1,500 Descending FlightAware ADS-B
Wed 06:18:26 AM -22.5060 -47.1280 158° South 363 418 21,100 -1,500 Descending FlightAware ADS-B
Wed 06:19:02 AM -22.5620 -47.1040 158° South 355 409 20,200 -1,500 Descending FlightAware ADS-B
Wed 06:19:34 AM -22.6110 -47.0830 158° South 349 402 19,400 -1,418 Descending FlightAware ADS-B
Wed 06:19:57 AM -22.6450 -47.0690 159° South 344 396 18,900 -1,235 Descending FlightAware ADS-B
Wed 06:20:42 AM -22.6940 -47.0490 159° South 331 381 18,000 -1,467 Descending FlightAware ADS-B
Wed 06:21:27 AM -22.7730 -47.0160 159° South 318 366 16,700 -1,558 Descending FlightAware ADS-B
Wed 06:21:59 AM -22.8160 -46.9970 158° South 314 361 16,000 -1,371 Descending FlightAware ADS-B
Wed 06:22:37 AM -22.8680 -46.9750 159° South 311 358 15,100 -1,377 Descending FlightAware ADS-B
Wed 06:23:00 AM -22.8990 -46.9630 160° South 310 357 14,600 -1,256 Descending FlightAware ADS-B
Wed 06:24:03 AM -22.9650 -46.9350 159° South 311 358 13,300 -1,347 Descending FlightAware ADS-B
Wed 06:24:38 AM -23.0140 -46.9140 158° South 311 358 12,400 -1,521 Descending FlightAware ADS-B
Wed 06:25:14 AM -23.0620 -46.8940 159° South 312 359 11,500 -1,457 Descending FlightAware ADS-B
Wed 06:25:48 AM -23.1080 -46.8740 158° South 303 349 10,700 -1,280 Descending FlightAware ADS-B
Wed 06:26:29 AM -23.1760 -46.8460 159° South 279 321 9,900 -1,217 Descending FlightAware ADS-B
Wed 06:26:57 AM -23.2100 -46.8320 159° South 276 318 9,300 -1,227 Descending FlightAware ADS-B
Wed 06:27:13 AM -23.2280 -46.8240 158° South 274 315 9,000 -1,050 Descending FlightAware ADS-B
Wed 06:27:37 AM -23.2570 -46.8120 159° South 273 314 8,600 -1,000 Descending FlightAware ADS-B
Wed 06:27:49 AM -23.2710 -46.8060 159° South 272 313 8,400 -563 Descending FlightAware ADS-B
Wed 06:28:09 AM -23.2940 -46.7960 158° South 259 298 8,300 -409 Descending FlightAware ADS-B
Wed 06:28:33 AM -23.3200 -46.7850 159° South 241 277 8,100 -409 Descending FlightAware ADS-B
Wed 06:28:53 AM -23.3390 -46.7770 159° South 227 261 8,000 -333 Descending FlightAware ADS-B
Wed 06:29:09 AM -23.3540 -46.7700 157° South 218 251 7,900 -500 Descending FlightAware ADS-B
Wed 06:29:29 AM -23.3740 -46.7610 158° South 215 247 7,700 -750 Descending FlightAware ADS-B
Wed 06:29:41 AM -23.3820 -46.7530 137° Southeast 216 249 7,500 -973 Descending FlightAware ADS-B
Wed 06:30:06 AM -23.4010 -46.7360 141° Southeast 215 247 7,100 -977 Descending FlightAware ADS-B
Wed 06:30:24 AM -23.4150 -46.7230 140° Southeast 215 247 6,800 -649 Descending FlightAware ADS-B
Wed 06:30:43 AM -23.4210 -46.7170 137° Southeast 214 246 6,700 -706 Descending FlightAware ADS-B
Wed 06:30:58 AM -23.4310 -46.7070 137° Southeast 213 245 6,400 -1,000 Descending FlightAware ADS-B
Wed 06:31:19 AM -23.4460 -46.6920 137° Southeast 210 242 6,100 -941 Descending FlightAware ADS-B
Wed 06:31:49 AM -23.4600 -46.6650 119° Southeast 203 234 5,600 -1,224 Descending FlightAware ADS-B
Wed 06:32:08 AM -23.4670 -46.6470 113° Southeast 207 238 5,100 -1,277 Descending FlightAware ADS-B
Wed 06:32:36 AM -23.4740 -46.6200 106° East 189 217 4,600 -1,000 Descending FlightAware ADS-B
Wed 06:32:44 AM -23.4730 -46.6130 81° East 177 204 4,500 -1,333 Descending FlightAware ADS-B
Wed 06:32:54 AM -23.4680 -46.5940 74° East 166 191 4,200 -1,241 Descending FlightAware ADS-B
Wed 06:33:13 AM -23.4640 -46.5790 74° East 163 188 3,900 -923 Descending FlightAware ADS-B
Wed 06:33:33 AM -23.4600 -46.5640 74° East 156 180 3,600 -750 Descending FlightAware ADS-B
Wed 06:34:01 AM -23.4540 -46.5440 72° East 146 168 3,300 -682 Descending FlightAware ADS-B
Wed 06:34:17 AM -23.4510 -46.5320 75° East 150 173 3,100 -800 Descending FlightAware ADS-B
Wed 06:34:31 AM -23.4480 -46.5220 72° East 152 175 2,900 -878 Descending FlightAware ADS-B
Wed 06:34:58 AM -23.4430 -46.5020 75° East 154 177 2,500 -789 Descending FlightAware ADS-B
Wed 06:35:09 AM -23.4410 -46.4940 75° East 156 180 2,400 -545 Descending FlightAware ADS-B
Wed 06:35:34 AM -23.4360 -46.4750 74° East 145 167 -5,760 Descending FlightAware ADS-B
Wed 06:36:11 AM -23.4310 -46.4580 72° East 120 138  Level FlightAware ADS-B

Login

Don't have an account? Register now (free) for customized features, flight alerts, and more!